Time;durP1;ratioP1;P1;durP2;ratioP2;P2;SDS_P1;SDS_P2;PMS_P1;PMS_P2;Temp;Humidity;BMP_temperature;BMP_pressure;BME280_temperature;BME280_humidity;BME280_pressure;Samples;Min_cycle;Max_cycle;Signal;HPM_P1;HPM_P2
2021/09/14 00:02:11;;;;;;;14.88;7.75;;;512.10;1484.80;;;;;;5095519;28;20097;-64
2021/09/14 00:04:37;;;;;;;18.95;8.50;;;512.00;1484.80;;;;;;5095647;28;20381;-64
2021/09/14 00:07:03;;;;;;;16.42;7.18;;;512.00;1484.80;;;;;;5094664;28;20473;-64
2021/09/14 00:09:29;;;;;;;18.73;7.68;;;512.00;1484.80;;;;;;5095341;28;20035;-64
2021/09/14 00:11:55;;;;;;;18.23;7.22;;;512.00;1484.80;;;;;;5095135;28;20508;-64
2021/09/14 00:14:21;;;;;;;19.58;7.75;;;487.30;1510.40;;;;;;5095214;28;20058;-64
2021/09/14 00:16:47;;;;;;;16.85;7.57;;;487.30;1484.80;;;;;;5094025;28;20020;-64
2021/09/14 00:19:13;;;;;;;12.60;7.50;;;487.30;1484.80;;;;;;5095144;28;20081;-65
2021/09/14 00:21:39;;;;;;;16.33;7.18;;;487.30;1510.40;;;;;;5093884;28;20060;-64
2021/09/14 00:24:04;;;;;;;18.40;7.82;;;487.30;1510.40;;;;;;5095297;28;20016;-64
2021/09/14 00:26:30;;;;;;;13.27;8.05;;;487.20;1510.40;;;;;;5095263;28;20024;-64
2021/09/14 00:28:56;;;;;;;18.38;8.48;;;487.20;1510.40;;;;;;5093715;28;20043;-64
2021/09/14 00:31:22;;;;;;;15.18;8.40;;;487.20;1536.00;;;;;;5095144;28;20024;-63
2021/09/14 00:33:47;;;;;;;12.18;7.93;;;487.20;1536.00;;;;;;5095069;28;20028;-64
2021/09/14 00:36:13;;;;;;;14.55;7.63;;;487.20;1536.00;;;;;;5094865;28;20112;-64
2021/09/14 00:38:39;;;;;;;12.45;7.40;;;487.20;1536.00;;;;;;5094712;28;20032;-64
2021/09/14 00:41:04;;;;;;;15.95;7.10;;;487.20;1536.00;;;;;;5095172;28;20016;-64
2021/09/14 00:43:30;;;;;;;13.35;7.95;;;487.20;1536.00;;;;;;5094918;28;20047;-64
2021/09/14 00:45:56;;;;;;;12.02;7.90;;;487.20;1561.60;;;;;;5094847;28;20098;-64
2021/09/14 00:48:21;;;;;;;17.33;8.30;;;487.20;1561.60;;;;;;5094581;28;20058;-64
2021/09/14 00:50:47;;;;;;;18.30;8.45;;;487.20;1561.60;;;;;;5094698;28;20035;-64
2021/09/14 00:53:14;;;;;;;17.08;8.63;;;487.20;1561.60;;;;;;5094509;28;20024;-64
2021/09/14 00:55:41;;;;;;;12.95;7.85;;;487.20;1561.60;;;;;;5093429;28;20036;-64
2021/09/14 00:58:07;;;;;;;16.73;8.55;;;487.20;1561.60;;;;;;5094248;28;20020;-64
2021/09/14 01:00:32;;;;;;;12.65;7.57;;;487.20;1561.60;;;;;;5093787;28;20028;-64
2021/09/14 01:02:59;;;;;;;20.42;8.10;;;487.20;1561.60;;;;;;5094403;28;20024;-64
2021/09/14 01:05:25;;;;;;;15.38;7.30;;;487.20;1587.20;;;;;;5094472;28;20116;-64
2021/09/14 01:07:52;;;;;;;14.85;8.65;;;487.10;1561.60;;;;;;5094170;28;20438;-64
2021/09/14 01:10:18;;;;;;;15.98;8.90;;;487.10;1561.60;;;;;;5094150;28;20043;-65
2021/09/14 01:12:46;;;;;;;17.83;7.75;;;487.10;1561.60;;;;;;5094318;28;20362;-64
2021/09/14 01:15:11;;;;;;;22.15;8.15;;;487.10;1587.20;;;;;;5093998;28;20079;-64
2021/09/14 01:17:37;;;;;;;13.18;8.02;;;487.10;1561.60;;;;;;5093877;28;20052;-64
2021/09/14 01:20:03;;;;;;;20.80;9.50;;;487.10;1587.20;;;;;;5094063;28;20028;-65
2021/09/14 01:22:30;;;;;;;16.45;9.18;;;487.10;1587.20;;;;;;5094084;28;20035;-64
2021/09/14 01:24:57;;;;;;;13.48;8.60;;;487.10;1587.20;;;;;;5094066;28;20085;-64
2021/09/14 01:27:23;;;;;;;16.13;8.00;;;487.10;1587.20;;;;;;5093959;28;20441;-65
2021/09/14 01:32:33;;;;;;;13.90;8.68;;;487.00;1587.20;;;;;;5094389;28;20122;-65
2021/09/14 01:35:34;;;;;;;18.00;8.77;;;487.00;1587.20;;;;;;5093995;28;20135;-65
2021/09/14 01:38:00;;;;;;;14.75;7.82;;;487.00;1587.20;;;;;;5090456;28;20028;-65
2021/09/14 01:40:26;;;;;;;15.00;8.13;;;487.00;1587.20;;;;;;5093963;28;20027;-65
2021/09/14 01:42:52;;;;;;;11.27;7.97;;;486.90;1587.20;;;;;;5093797;28;20428;-65
2021/09/14 01:45:18;;;;;;;13.25;8.15;;;486.90;1587.20;;;;;;5093757;28;20066;-64
2021/09/14 01:47:44;;;;;;;15.73;8.68;;;486.90;1612.80;;;;;;5092114;28;20032;-65
2021/09/14 01:50:12;;;;;;;16.20;7.97;;;486.90;1612.80;;;;;;5093532;28;20466;-65
2021/09/14 01:52:38;;;;;;;14.63;8.70;;;486.90;1612.80;;;;;;5092313;28;20473;-65
2021/09/14 01:55:06;;;;;;;12.43;7.65;;;486.90;1612.80;;;;;;5093647;28;20029;-65
2021/09/14 01:57:37;;;;;;;16.85;8.52;;;486.90;1612.80;;;;;;5092611;28;20024;-65
2021/09/14 02:00:07;;;;;;;10.75;7.97;;;486.90;1612.80;;;;;;5092369;28;20465;-65
2021/09/14 02:02:56;;;;;;;13.68;7.63;;;486.90;1612.80;;;;;;5093638;28;20051;-65
2021/09/14 02:59:00;;;;;;;18.48;8.77;;;486.70;1638.40;;;;;;5054534;28;20025;-65
2021/09/14 03:01:26;;;;;;;11.02;8.98;;;486.60;1638.40;;;;;;5054782;28;20083;-65
2021/09/14 03:03:54;;;;;;;15.75;9.45;;;486.60;1638.40;;;;;;5037728;28;20021;-64
2021/09/14 03:06:20;;;;;;;11.43;8.55;;;486.60;1664.00;;;;;;5054086;28;20033;-65
2021/09/14 03:08:47;;;;;;;18.88;9.80;;;486.60;1664.00;;;;;;5054112;28;20178;-65
2021/09/14 03:11:15;;;;;;;15.25;8.57;;;486.50;1638.40;;;;;;5053822;28;20071;-65
2021/09/14 03:13:41;;;;;;;23.45;9.18;;;486.50;1664.00;;;;;;5054073;28;20040;-65
2021/09/14 03:16:09;;;;;;;17.55;9.27;;;486.50;1664.00;;;;;;5054279;28;20525;-65
2021/09/14 03:18:35;;;;;;;27.02;9.43;;;486.50;1664.00;;;;;;5053672;28;20426;-64
2021/09/14 03:21:02;;;;;;;22.38;9.23;;;486.50;1664.00;;;;;;5057382;28;20111;-65
2021/09/14 03:23:28;;;;;;;14.38;8.27;;;486.50;1664.00;;;;;;5076096;28;20029;-64
2021/09/14 03:25:54;;;;;;;14.85;8.93;;;486.40;1664.00;;;;;;5076209;28;20070;-64
2021/09/14 03:28:19;;;;;;;13.65;9.27;;;486.40;1664.00;;;;;;5075995;28;20474;-64
2021/09/14 03:30:47;;;;;;;11.27;8.63;;;486.40;1664.00;;;;;;5075964;28;20017;-64
2021/09/14 03:33:13;;;;;;;15.80;8.55;;;486.40;1664.00;;;;;;5076270;28;20074;-64
2021/09/14 03:35:38;;;;;;;20.90;8.57;;;486.40;1664.00;;;;;;5075968;28;20028;-65
2021/09/14 03:38:04;;;;;;;13.00;8.40;;;486.40;1664.00;;;;;;5075974;28;20025;-65
2021/09/14 03:40:30;;;;;;;13.35;9.05;;;486.40;1664.00;;;;;;5076025;28;20054;-64
2021/09/14 03:42:56;;;;;;;10.85;8.77;;;461.70;1664.00;;;;;;5075869;28;20401;-64
2021/09/14 03:45:21;;;;;;;14.60;8.50;;;461.70;1689.60;;;;;;5075787;28;20082;-64
2021/09/14 03:47:47;;;;;;;13.20;9.07;;;461.60;1689.60;;;;;;5075720;28;20066;-64
2021/09/14 03:50:13;;;;;;;17.70;9.05;;;461.60;1689.60;;;;;;5076203;28;20389;-64
2021/09/14 03:52:39;;;;;;;12.77;8.63;;;461.60;1689.60;;;;;;5074199;28;20111;-64
2021/09/14 03:55:08;;;;;;;20.63;9.23;;;461.60;1689.60;;;;;;5074308;28;20051;-64
2021/09/14 03:57:34;;;;;;;23.98;10.05;;;461.60;1689.60;;;;;;5075323;28;20474;-64
2021/09/14 03:59:59;;;;;;;20.08;9.40;;;461.60;1689.60;;;;;;5075546;28;20040;-64
2021/09/14 04:02:38;;;;;;;25.77;9.65;;;461.50;1689.60;;;;;;5075331;28;20024;-64
2021/09/14 04:05:21;;;;;;;17.90;8.75;;;461.50;1715.20;;;;;;5075424;28;20028;-64
2021/09/14 04:10:18;;;;;;;15.10;10.25;;;461.50;1689.60;;;;;;5081306;28;20055;-64
2021/09/14 04:12:44;;;;;;;20.27;9.10;;;461.50;1715.20;;;;;;5093734;28;20029;-64
2021/09/14 04:15:10;;;;;;;20.25;9.52;;;461.50;1715.20;;;;;;5095097;28;20055;-64
2021/09/14 04:17:36;;;;;;;15.65;9.63;;;461.50;1715.20;;;;;;5093990;28;20036;-64
2021/09/14 04:20:03;;;;;;;17.52;10.02;;;461.50;1715.20;;;;;;5093598;28;20051;-64
2021/09/14 04:22:29;;;;;;;17.60;9.23;;;461.50;1715.20;;;;;;5095042;28;20016;-64
2021/09/14 04:24:54;;;;;;;17.27;8.93;;;461.40;1715.20;;;;;;5095358;28;20105;-65
2021/09/14 04:27:20;;;;;;;18.45;9.77;;;461.40;1715.20;;;;;;5095339;28;20488;-65
2021/09/14 04:29:47;;;;;;;18.92;9.57;;;461.40;1715.20;;;;;;5095295;28;20016;-64
2021/09/14 04:32:12;;;;;;;14.00;9.10;;;461.40;1715.20;;;;;;5094851;28;20042;-65
2021/09/14 04:34:38;;;;;;;15.27;9.40;;;461.40;1740.80;;;;;;5094863;28;20028;-65
2021/09/14 04:37:04;;;;;;;18.30;10.13;;;461.30;1715.20;;;;;;5095013;28;20016;-65
2021/09/14 04:39:30;;;;;;;19.38;10.32;;;461.30;1715.20;;;;;;5094636;28;20081;-64
2021/09/14 04:41:55;;;;;;;18.13;9.73;;;461.40;1715.20;;;;;;5094985;28;20078;-64
2021/09/14 04:44:21;;;;;;;15.38;10.00;;;461.40;1740.80;;;;;;5110428;28;20473;-64
2021/09/14 04:46:47;;;;;;;15.35;9.88;;;461.40;1715.20;;;;;;5094958;28;20016;-65
2021/09/14 04:49:12;;;;;;;14.93;9.57;;;461.40;1715.20;;;;;;5094891;28;20047;-64
2021/09/14 04:51:38;;;;;;;20.35;9.95;;;461.40;1740.80;;;;;;5094364;28;20373;-65
2021/09/14 04:54:04;;;;;;;24.70;9.88;;;461.50;1740.80;;;;;;5094614;28;20505;-64
2021/09/14 04:56:30;;;;;;;17.15;10.15;;;461.50;1740.80;;;;;;5094396;28;20461;-65
2021/09/14 04:58:56;;;;;;;18.52;11.27;;;461.50;1740.80;;;;;;5094752;28;20028;-64
2021/09/14 05:01:22;;;;;;;18.02;9.98;;;461.50;1740.80;;;;;;5094664;28;20024;-64
2021/09/14 05:03:48;;;;;;;17.55;9.85;;;461.50;1740.80;;;;;;5093217;28;20112;-64
2021/09/14 05:06:14;;;;;;;14.10;10.70;;;461.50;1740.80;;;;;;5094285;28;20462;-64
2021/09/14 05:08:40;;;;;;;14.88;10.23;;;461.50;1740.80;;;;;;5094417;28;20035;-65
2021/09/14 05:11:06;;;;;;;20.73;11.38;;;461.50;1740.80;;;;;;5094371;28;20051;-64
2021/09/14 05:13:33;;;;;;;15.82;10.70;;;461.50;1766.40;;;;;;5092513;28;20036;-64
2021/09/14 05:15:59;;;;;;;18.80;10.32;;;461.60;1766.40;;;;;;5094335;28;20032;-66
2021/09/14 05:18:25;;;;;;;19.63;10.65;;;461.60;1766.40;;;;;;5094224;28;20028;-66
2021/09/14 05:20:52;;;;;;;19.33;10.25;;;461.60;1766.40;;;;;;5094581;28;20055;-65
2021/09/14 05:23:39;;;;;;;19.65;10.20;;;461.60;1766.40;;;;;;5094420;28;20016;-65
2021/09/14 05:26:06;;;;;;;18.67;10.30;;;461.70;1766.40;;;;;;5093990;28;20040;-65
2021/09/14 05:28:33;;;;;;;20.85;10.35;;;461.70;1740.80;;;;;;5094348;28;20016;-65
2021/09/14 05:30:59;;;;;;;19.25;10.60;;;486.40;1766.40;;;;;;5094138;28;20027;-65
2021/09/14 05:33:25;;;;;;;24.77;10.77;;;486.40;1766.40;;;;;;5093565;28;20081;-65
2021/09/14 05:35:53;;;;;;;17.50;11.07;;;486.40;1766.40;;;;;;5093956;28;20039;-65
2021/09/14 05:38:21;;;;;;;19.60;10.55;;;486.40;1766.40;;;;;;5092649;28;20032;-65
2021/09/14 05:40:49;;;;;;;21.75;10.30;;;486.40;1766.40;;;;;;5094033;28;20496;-65
2021/09/14 05:43:15;;;;;;;24.58;12.25;;;486.50;1766.40;;;;;;5093785;28;20035;-65
2021/09/14 05:45:40;;;;;;;16.52;12.43;;;486.50;1766.40;;;;;;5093355;28;20137;-65
2021/09/14 05:48:06;;;;;;;21.77;11.75;;;486.60;1766.40;;;;;;5093993;28;20039;-65
2021/09/14 05:50:32;;;;;;;22.60;11.65;;;486.60;1766.40;;;;;;5093795;28;20028;-65
2021/09/14 05:52:58;;;;;;;21.77;13.05;;;486.70;1766.40;;;;;;5093374;28;20023;-65
2021/09/14 05:55:24;;;;;;;19.80;11.48;;;486.70;1766.40;;;;;;5093654;28;20492;-65
2021/09/14 05:57:49;;;;;;;19.00;11.93;;;486.80;1766.40;;;;;;5093666;28;20032;-64
2021/09/14 06:00:15;;;;;;;26.83;12.20;;;486.80;1792.00;;;;;;5093856;28;20377;-65
2021/09/14 06:02:41;;;;;;;22.65;12.43;;;486.80;1792.00;;;;;;5093718;28;20093;-65
2021/09/14 06:05:07;;;;;;;19.95;12.77;;;486.90;1792.00;;;;;;5093866;28;20439;-65
2021/09/14 06:07:33;;;;;;;18.58;11.48;;;486.90;1792.00;;;;;;5093735;28;20024;-64
2021/09/14 06:10:00;;;;;;;18.80;11.52;;;487.00;1792.00;;;;;;5092871;28;20431;-65
2021/09/14 06:12:26;;;;;;;21.60;11.43;;;487.10;1766.40;;;;;;5093860;28;20016;-65
2021/09/14 06:14:52;;;;;;;27.05;11.10;;;487.10;1766.40;;;;;;5093640;28;20039;-64
2021/09/14 06:17:18;;;;;;;22.50;12.38;;;487.20;1766.40;;;;;;5093648;28;20099;-65
2021/09/14 06:19:44;;;;;;;16.55;10.80;;;487.20;1766.40;;;;;;5092204;28;20059;-65
2021/09/14 06:22:09;;;;;;;13.30;9.27;;;487.30;1740.80;;;;;;5092175;28;20043;-65
2021/09/14 06:24:36;;;;;;;15.98;9.82;;;512.00;1740.80;;;;;;5093083;28;20035;-65
2021/09/14 06:27:01;;;;;;;18.50;10.05;;;512.00;1740.80;;;;;;5093448;28;20028;-65
2021/09/14 06:29:27;;;;;;;18.90;10.10;;;512.00;1740.80;;;;;;5093543;28;20020;-65
2021/09/14 06:31:53;;;;;;;16.00;10.13;;;512.10;1740.80;;;;;;5091138;28;20032;-65
2021/09/14 06:34:19;;;;;;;11.90;9.82;;;512.20;1766.40;;;;;;5093662;28;20080;-65
2021/09/14 06:36:44;;;;;;;15.52;9.82;;;512.20;1740.80;;;;;;5093420;28;20020;-65
2021/09/14 06:39:10;;;;;;;12.75;10.13;;;512.30;1740.80;;;;;;5093496;28;20059;-65
2021/09/14 06:41:36;;;;;;;17.60;11.10;;;512.40;1740.80;;;;;;5093561;28;20377;-65
2021/09/14 06:44:04;;;;;;;14.27;10.07;;;512.50;1740.80;;;;;;5093191;28;20115;-65
2021/09/14 06:46:30;;;;;;;13.25;9.75;;;512.60;1740.80;;;;;;5092222;28;20074;-65
2021/09/14 06:48:55;;;;;;;19.52;9.93;;;512.60;1740.80;;;;;;5093197;28;20028;-65
2021/09/14 06:51:21;;;;;;;19.60;10.32;;;512.70;1715.20;;;;;;5093482;28;20103;-65
2021/09/14 06:53:47;;;;;;;15.93;9.77;;;512.80;1740.80;;;;;;5093257;28;20386;-65
2021/09/14 06:56:13;;;;;;;16.65;10.00;;;512.90;1715.20;;;;;;5095574;28;20089;-65
2021/09/14 06:58:38;;;;;;;15.60;10.20;;;537.60;1740.80;;;;;;5096852;28;20073;-64
2021/09/14 07:01:05;;;;;;;16.63;10.60;;;537.60;1740.80;;;;;;5096995;28;20414;-64
2021/09/14 07:03:31;;;;;;;17.05;10.55;;;537.70;1740.80;;;;;;5096935;28;20377;-65
2021/09/14 07:05:57;;;;;;;20.10;10.57;;;537.90;1715.20;;;;;;5096857;28;20099;-67
2021/09/14 07:08:23;;;;;;;15.50;9.88;;;538.00;1715.20;;;;;;5096728;28;20113;-65
2021/09/14 07:10:49;;;;;;;14.05;10.73;;;538.00;1715.20;;;;;;5096338;28;20059;-69
2021/09/14 07:13:15;;;;;;;14.05;10.25;;;538.10;1689.60;;;;;;5096902;28;20072;-67
2021/09/14 07:15:43;;;;;;;12.02;9.80;;;538.30;1689.60;;;;;;5095298;28;20043;-64
2021/09/14 07:18:09;;;;;;;16.17;10.30;;;538.40;1689.60;;;;;;5096253;28;20476;-64
2021/09/14 07:20:35;;;;;;;17.10;10.25;;;538.50;1689.60;;;;;;5096176;28;20024;-64
2021/09/14 07:23:01;;;;;;;13.02;9.90;;;563.20;1689.60;;;;;;5096250;28;20031;-64
2021/09/14 07:25:28;;;;;;;18.45;10.57;;;563.40;1689.60;;;;;;5095951;28;20058;-64
2021/09/14 07:27:53;;;;;;;16.27;9.02;;;563.40;1664.00;;;;;;5096356;28;20047;-64
2021/09/14 07:30:19;;;;;;;15.85;10.15;;;563.70;1664.00;;;;;;5096379;28;20034;-65
2021/09/14 07:32:45;;;;;;;14.73;10.07;;;563.80;1664.00;;;;;;5096033;28;20016;-64
2021/09/14 07:35:11;;;;;;;16.73;11.48;;;564.00;1664.00;;;;;;5096397;28;20457;-73
2021/09/14 07:37:38;;;;;;;14.23;10.00;;;564.10;1638.40;;;;;;5096108;28;20017;-73
2021/09/14 07:40:05;;;;;;;14.82;9.85;;;588.80;1664.00;;;;;;5096249;28;20024;-64
2021/09/14 07:42:31;;;;;;;11.23;9.43;;;589.00;1638.40;;;;;;5096067;28;20027;-64
2021/09/14 07:44:57;;;;;;;18.15;9.75;;;589.20;1638.40;;;;;;5095988;28;20036;-65
2021/09/14 07:47:22;;;;;;;13.98;9.85;;;589.30;1612.80;;;;;;5095890;28;20028;-65
2021/09/14 07:49:48;;;;;;;13.63;10.00;;;589.50;1612.80;;;;;;5095509;28;20039;-65
2021/09/14 07:52:14;;;;;;;23.90;11.52;;;589.70;1587.20;;;;;;5095732;28;20031;-64
2021/09/14 07:54:40;;;;;;;19.67;10.40;;;614.40;1587.20;;;;;;5095675;28;20044;-64
2021/09/14 07:57:06;;;;;;;46.58;14.75;;;614.40;1561.60;;;;;;5095972;28;20024;-64
2021/09/14 07:59:32;;;;;;;47.30;14.07;;;614.60;1536.00;;;;;;5095799;28;20047;-64
2021/09/14 08:01:58;;;;;;;31.85;10.48;;;614.70;1536.00;;;;;;5095923;28;20035;-64
2021/09/14 08:04:24;;;;;;;28.85;9.82;;;614.80;1536.00;;;;;;5095753;28;20031;-64
2021/09/14 08:06:49;;;;;;;22.38;9.45;;;615.00;1536.00;;;;;;5094868;28;20028;-64
2021/09/14 08:09:15;;;;;;;37.10;11.43;;;615.10;1510.40;;;;;;5095738;28;20099;-64
2021/09/14 08:11:41;;;;;;;30.23;9.85;;;615.20;1484.80;;;;;;5095382;28;20046;-64
2021/09/14 08:14:07;;;;;;;31.80;9.77;;;615.30;1484.80;;;;;;5095465;28;20077;-64
2021/09/14 08:16:33;;;;;;;30.55;10.32;;;640.10;1459.20;;;;;;5094087;28;20397;-64
2021/09/14 08:18:59;;;;;;;23.92;8.18;;;640.20;1459.20;;;;;;5095830;28;20027;-63
2021/09/14 08:21:24;;;;;;;16.60;8.15;;;640.30;1433.60;;;;;;5095271;28;20477;-64
2021/09/14 08:23:51;;;;;;;13.95;7.18;;;640.50;1408.00;;;;;;5095261;28;20028;-64
2021/09/14 08:26:17;;;;;;;25.98;7.40;;;640.60;1408.00;;;;;;5094505;28;20081;-64
2021/09/14 08:28:42;;;;;;;21.40;7.30;;;640.70;1408.00;;;;;;5092749;28;20028;-63
2021/09/14 08:31:08;;;;;;;21.38;7.78;;;640.70;1382.40;;;;;;5093468;28;20036;-64
2021/09/14 08:33:34;;;;;;;18.98;7.47;;;640.80;1382.40;;;;;;5094448;28;20099;-64
2021/09/14 08:36:00;;;;;;;11.05;6.10;;;665.60;1408.00;;;;;;5094393;28;20039;-64
2021/09/14 08:38:27;;;;;;;12.07;6.97;;;665.70;1382.40;;;;;;5093963;28;20044;-64
2021/09/14 08:40:53;;;;;;;16.67;7.53;;;665.80;1382.40;;;;;;5094478;28;20146;-64
2021/09/14 08:43:18;;;;;;;8.15;5.75;;;665.80;1382.40;;;;;;5094178;28;20020;-64
2021/09/14 08:45:45;;;;;;;8.57;5.53;;;666.00;1356.80;;;;;;5091573;28;20023;-66
2021/09/14 08:48:11;;;;;;;10.25;5.85;;;666.10;1331.20;;;;;;5094697;28;20430;-74
2021/09/14 08:50:37;;;;;;;8.63;5.50;;;666.20;1331.20;;;;;;5093707;28;20081;-63
2021/09/14 08:53:05;;;;;;;8.55;4.82;;;666.30;1305.60;;;;;;5091805;28;20111;-68
2021/09/14 08:55:33;;;;;;;9.48;5.05;;;666.40;1305.60;;;;;;5093263;28;20032;-65
2021/09/14 08:57:58;;;;;;;8.07;4.45;;;691.20;1280.00;;;;;;5090065;28;20040;-64
2021/09/14 09:00:33;;;;;;;5.60;4.78;;;691.20;1280.00;;;;;;5093216;28;20535;-64
2021/09/14 09:02:59;;;;;;;10.60;4.97;;;691.30;1254.40;;;;;;5093840;28;20023;-64
2021/09/14 09:05:39;;;;;;;6.30;4.78;;;691.50;1254.40;;;;;;5094627;28;20027;-66
2021/09/14 09:08:17;;;;;;;10.45;5.03;;;691.70;1254.40;;;;;;5094510;28;20457;-63
2021/09/14 09:10:43;;;;;;;12.80;5.10;;;691.80;1228.80;;;;;;5094349;28;20048;-63
2021/09/14 09:13:08;;;;;;;10.10;4.82;;;691.90;1203.20;;;;;;5093274;28;20371;-67
2021/09/14 09:15:34;;;;;;;13.38;5.50;;;692.00;1203.20;;;;;;5094415;28;20036;-63
2021/09/14 09:18:04;;;;;;;10.20;5.15;;;716.80;1228.80;;;;;;5094150;28;20484;-67
2021/09/14 09:20:31;;;;;;;9.48;4.50;;;716.90;1203.20;;;;;;5094044;28;20062;-63
2021/09/14 09:23:31;;;;;;;10.85;4.90;;;716.90;1228.80;;;;;;5093668;28;20023;-65
2021/09/14 09:26:07;;;;;;;9.00;5.57;;;716.90;1203.20;;;;;;5012058;28;20053;-66
2021/09/14 09:28:34;;;;;;;12.90;5.18;;;717.00;1177.60;;;;;;5012077;28;20096;-63
2021/09/14 09:31:08;;;;;;;13.32;5.07;;;717.10;1203.20;;;;;;5012184;28;20077;-72
2021/09/14 09:33:34;;;;;;;6.05;4.75;;;717.20;1177.60;;;;;;4995555;28;20032;-65
2021/09/14 09:36:07;;;;;;;8.98;4.82;;;717.30;1177.60;;;;;;5011970;28;20392;-72
2021/09/14 09:38:51;;;;;;;13.23;4.75;;;717.30;1126.40;;;;;;5011897;28;20080;-64
2021/09/14 09:41:18;;;;;;;10.23;3.88;;;717.30;1152.00;;;;;;5012040;28;20034;-64
2021/09/14 09:43:45;;;;;;;7.13;4.13;;;717.40;1152.00;;;;;;5012183;28;20377;-64
2021/09/14 09:46:18;;;;;;;6.60;4.93;;;717.50;1152.00;;;;;;5012053;28;20084;-64
2021/09/14 09:48:44;;;;;;;8.32;4.45;;;717.50;1126.40;;;;;;5011963;28;20059;-63
2021/09/14 09:51:10;;;;;;;5.70;4.10;;;717.50;1126.40;;;;;;5011999;28;20025;-63
2021/09/14 09:53:38;;;;;;;11.35;4.13;;;717.60;1126.40;;;;;;5011919;28;20029;-63
2021/09/14 09:56:05;;;;;;;12.25;4.03;;;742.40;1152.00;;;;;;5011540;28;20036;-63
2021/09/14 09:58:31;;;;;;;7.53;4.10;;;742.50;1152.00;;;;;;5011897;28;20026;-63
2021/09/14 10:01:13;;;;;;;11.80;4.18;;;742.60;1152.00;;;;;;5011853;28;20375;-63
2021/09/14 10:03:58;;;;;;;11.63;4.30;;;742.60;1100.80;;;;;;5093786;28;20066;-63
2021/09/14 10:06:39;;;;;;;13.32;3.58;;;742.60;1075.20;;;;;;5093013;28;20052;-63
2021/09/14 10:09:05;;;;;;;5.07;3.40;;;742.60;1100.80;;;;;;5093796;28;20028;-63
2021/09/14 10:11:32;;;;;;;3.70;3.08;;;742.60;1075.20;;;;;;5092302;28;20058;-63
2021/09/14 10:14:06;;;;;;;7.38;3.25;;;742.70;1075.20;;;;;;5092021;28;20036;-63
2021/09/14 10:16:35;;;;;;;10.52;3.20;;;742.70;1049.60;;;;;;5093593;28;20115;-63
2021/09/14 10:19:13;;;;;;;4.38;3.05;;;742.70;1049.60;;;;;;5093725;28;20096;-63
2021/09/14 10:21:58;;;;;;;4.40;3.25;;;742.70;1049.60;;;;;;5093478;28;20423;-63
2021/09/14 10:24:24;;;;;;;6.47;3.30;;;742.70;1024.00;;;;;;5093582;28;20031;-63
2021/09/14 10:27:02;;;;;;;4.65;3.28;;;742.70;1024.00;;;;;;5093745;28;20028;-63
2021/09/14 10:29:28;;;;;;;6.95;3.08;;;742.70;1024.00;;;;;;5093647;28;20374;-63
2021/09/14 10:32:11;;;;;;;7.05;3.53;;;742.70;1024.00;;;;;;5096962;28;20025;-63
2021/09/14 10:34:43;;;;;;;5.80;3.40;;;742.70;998.40;;;;;;5097504;28;20032;-64
2021/09/14 10:37:11;;;;;;;4.80;3.80;;;742.70;998.40;;;;;;5097226;28;20028;-63
2021/09/14 10:39:42;;;;;;;3.58;3.17;;;742.80;1024.00;;;;;;5097132;28;20546;-63
2021/09/14 10:42:17;;;;;;;4.88;3.40;;;742.80;1024.00;;;;;;5097151;28;20039;-63
2021/09/14 10:44:44;;;;;;;7.00;3.85;;;742.80;1024.00;;;;;;5097437;28;20492;-63
2021/09/14 10:47:12;;;;;;;9.35;3.10;;;742.80;1024.00;;;;;;5097032;28;20596;-63
2021/09/14 10:49:59;;;;;;;6.85;3.15;;;742.90;998.40;;;;;;5097164;28;20028;-63
2021/09/14 10:52:41;;;;;;;7.93;3.58;;;743.00;972.80;;;;;;5097528;28;20107;-63
2021/09/14 10:55:07;;;;;;;8.20;2.95;;;743.00;998.40;;;;;;5096963;28;20470;-63
2021/09/14 10:57:34;;;;;;;5.80;3.13;;;743.00;998.40;;;;;;5097034;28;20020;-63
2021/09/14 11:00:00;;;;;;;5.15;3.60;;;743.10;972.80;;;;;;5096822;28;20035;-62
2021/09/14 11:02:26;;;;;;;5.38;2.65;;;743.10;972.80;;;;;;5096269;28;20107;-63
2021/09/14 11:04:52;;;;;;;4.55;3.17;;;743.10;972.80;;;;;;5096441;28;20092;-63
2021/09/14 11:07:20;;;;;;;3.40;2.63;;;743.10;972.80;;;;;;5096679;28;20028;-63
2021/09/14 11:09:57;;;;;;;8.73;3.08;;;743.10;972.80;;;;;;5096599;28;20016;-63
2021/09/14 11:12:26;;;;;;;5.63;3.20;;;743.10;947.20;;;;;;5097085;28;20047;-63
2021/09/14 11:14:57;;;;;;;16.50;3.47;;;743.20;947.20;;;;;;5096886;28;20111;-63
2021/09/14 11:17:33;;;;;;;3.50;3.00;;;743.20;947.20;;;;;;5096681;28;20024;-63
2021/09/14 11:20:13;;;;;;;6.15;2.92;;;743.20;947.20;;;;;;5096484;28;20481;-63
2021/09/14 11:22:40;;;;;;;4.50;3.47;;;743.30;921.60;;;;;;5096522;28;20461;-63
2021/09/14 11:25:18;;;;;;;4.55;3.10;;;743.30;921.60;;;;;;5096620;28;20098;-64
2021/09/14 11:28:01;;;;;;;14.65;3.70;;;743.30;921.60;;;;;;5096443;28;20024;-63
2021/09/14 11:30:28;;;;;;;11.07;3.50;;;768.00;947.20;;;;;;5096641;28;20020;-64
2021/09/14 11:32:55;;;;;;;9.07;3.78;;;768.00;947.20;;;;;;5096646;28;20047;-65
2021/09/14 11:35:22;;;;;;;5.57;2.83;;;768.00;921.60;;;;;;5096504;28;20043;-64
2021/09/14 11:38:01;;;;;;;8.68;3.47;;;743.30;921.60;;;;;;5094025;28;20032;-64
2021/09/14 11:40:28;;;;;;;5.88;3.50;;;743.30;921.60;;;;;;5096463;28;20081;-71
2021/09/14 11:42:59;;;;;;;8.88;3.92;;;743.20;921.60;;;;;;5095901;28;20031;-64
2021/09/14 11:45:27;;;;;;;11.00;4.95;;;743.20;921.60;;;;;;5095229;28;20039;-64
2021/09/14 11:47:55;;;;;;;4.20;3.60;;;743.10;921.60;;;;;;5095815;28;20030;-64
2021/09/14 11:50:29;;;;;;;9.20;3.47;;;743.10;921.60;;;;;;5095629;28;20058;-64
2021/09/14 11:53:05;;;;;;;6.00;3.20;;;743.10;921.60;;;;;;5096319;28;20038;-64
2021/09/14 11:55:31;;;;;;;6.03;3.80;;;743.10;947.20;;;;;;5096261;28;20036;-64
2021/09/14 11:57:58;;;;;;;5.68;2.97;;;743.10;921.60;;;;;;5095826;28;20062;-65
2021/09/14 12:00:54;;;;;;;3.50;3.15;;;743.10;921.60;;;;;;5095806;28;20111;-64
2021/09/14 12:03:21;;;;;;;6.07;3.60;;;743.10;921.60;;;;;;5013745;28;20065;-64
2021/09/14 12:05:57;;;;;;;9.18;3.22;;;743.10;921.60;;;;;;5014248;28;20022;-64
2021/09/14 12:08:33;;;;;;;13.52;3.58;;;743.10;947.20;;;;;;5013794;28;20037;-64
2021/09/14 12:11:01;;;;;;;16.20;4.38;;;743.10;947.20;;;;;;5013390;28;20516;-64
2021/09/14 12:13:27;;;;;;;7.50;3.08;;;743.20;947.20;;;;;;5013433;28;20126;-64
2021/09/14 12:16:05;;;;;;;5.70;3.47;;;743.30;921.60;;;;;;4997146;28;20026;-64
2021/09/14 12:18:31;;;;;;;6.50;3.15;;;743.30;896.00;;;;;;5013496;28;20534;-64
2021/09/14 12:20:56;;;;;;;4.60;2.80;;;743.30;896.00;;;;;;5013570;28;20041;-66
2021/09/14 12:23:22;;;;;;;5.75;3.13;;;743.30;896.00;;;;;;5013261;28;20021;-64
2021/09/14 12:25:50;;;;;;;7.65;4.75;;;743.30;921.60;;;;;;5013216;28;20026;-64
2021/09/14 12:28:15;;;;;;;7.07;2.85;;;743.30;921.60;;;;;;5013383;28;20492;-64
2021/09/14 12:30:41;;;;;;;5.15;2.90;;;743.30;921.60;;;;;;5013320;28;20094;-65
2021/09/14 12:33:07;;;;;;;6.63;3.35;;;743.20;947.20;;;;;;5013134;28;20061;-64
2021/09/14 12:35:33;;;;;;;4.22;3.55;;;743.20;947.20;;;;;;5012901;28;20029;-64
2021/09/14 12:37:59;;;;;;;4.45;3.47;;;743.20;947.20;;;;;;5013526;28;20030;-64
2021/09/14 12:40:24;;;;;;;4.45;3.10;;;743.20;947.20;;;;;;5074204;28;20533;-64
2021/09/14 12:42:50;;;;;;;8.60;4.13;;;743.20;921.60;;;;;;5094935;28;20087;-64
2021/09/14 12:45:16;;;;;;;5.80;3.20;;;743.10;947.20;;;;;;5095361;28;20035;-64
2021/09/14 12:47:42;;;;;;;7.97;3.28;;;743.10;921.60;;;;;;5094932;28;20027;-64
2021/09/14 12:50:08;;;;;;;7.40;3.33;;;743.10;947.20;;;;;;5094190;28;20035;-64
2021/09/14 12:52:34;;;;;;;4.38;3.28;;;743.00;947.20;;;;;;5094578;28;20024;-64
2021/09/14 12:54:59;;;;;;;13.05;3.33;;;743.00;947.20;;;;;;5094250;28;20036;-64
2021/09/14 12:57:25;;;;;;;4.28;2.97;;;743.00;947.20;;;;;;5093049;28;20405;-65
2021/09/14 12:59:51;;;;;;;5.72;3.58;;;743.00;947.20;;;;;;5094481;28;20031;-64
2021/09/14 13:02:17;;;;;;;4.88;3.20;;;743.00;947.20;;;;;;5093055;28;20030;-64
2021/09/14 13:04:43;;;;;;;4.53;2.90;;;743.10;947.20;;;;;;5094653;28;20032;-65
2021/09/14 13:07:08;;;;;;;5.55;3.60;;;743.00;947.20;;;;;;5094401;28;20089;-64
2021/09/14 13:09:34;;;;;;;3.42;3.13;;;743.00;921.60;;;;;;5093129;28;20036;-64
2021/09/14 13:12:00;;;;;;;5.03;3.05;;;743.00;921.60;;;;;;5094442;28;20130;-64
2021/09/14 13:17:11;;;;;;;7.03;2.83;;;743.10;947.20;;;;;;5094332;28;20054;-65